ポルト・アレグレ の空港の天気 - METARとTAF

ポルト・アレグレ国際空港 ( SBPA / POA ) - ブラジル リオグランデ・ド・スル州ポルト・アレグレ
飛行場実況気象(Metar)
観測時間05/26 20:00 BRT (05/26 23:00 UTC)
風向・風速西 5m/s
視程10km以上
天気現象
なし
気温14℃
湿度77%
気圧1016hPa
METARSBPA 262300Z 28009KT CAVOK 14/10 Q1016
過去の天気等 Google飛行場航空写真 Wunderground天気予報

過去48時間のMETAR

飛行場予報(TAF)
発表時間: 5/26 12:00 BRT (5/26 15:00 UTC)
予報対象時間: 26日15時 BRT ~ 27日15時 BRT
風向・風速西 5m/s 瞬間風速 13m/s
視程10km以上
全天の4割程度の雲 雲底高度 1220m
26日15時 BRT ~ 26日17時 BRT に徐々に
風向・風速西 4m/s
27日2時 BRT ~ 27日4時 BRT に徐々に
全天の8割程度の雲 雲底高度 1220m
27日5時 BRT ~ 27日7時 BRT に徐々に
風向・風速北西 5m/s
TAF SBPA 261500Z 2618/2718 27010G25KT 9999 SCT040 TX21/2618Z TN14/2706Z
BECMG 2618/2620 27008KT
BECMG 2705/2707 BKN040
BECMG 2708/2710 32010KT RMK PEC